sensor_id;sensor_type;location;lat;lon;timestamp;temperature;humidity
62912;DHT22;49111;51.028;4.218;2023-03-31T00:01:20;13.40;99.90
62912;DHT22;49111;51.028;4.218;2023-03-31T00:03:45;13.50;99.90
62912;DHT22;49111;51.028;4.218;2023-03-31T00:06:12;13.50;99.90
62912;DHT22;49111;51.028;4.218;2023-03-31T00:08:43;13.50;99.90
62912;DHT22;49111;51.028;4.218;2023-03-31T00:11:08;13.50;99.90
62912;DHT22;49111;51.028;4.218;2023-03-31T00:13:35;13.30;99.90
62912;DHT22;49111;51.028;4.218;2023-03-31T00:16:03;13.40;99.90
62912;DHT22;49111;51.028;4.218;2023-03-31T00:18:29;13.30;99.90
62912;DHT22;49111;51.028;4.218;2023-03-31T00:21:08;13.30;99.90
62912;DHT22;49111;51.028;4.218;2023-03-31T00:23:39;13.30;99.90
62912;DHT22;49111;51.028;4.218;2023-03-31T00:26:05;13.30;99.90
62912;DHT22;49111;51.028;4.218;2023-03-31T00:28:31;13.30;99.90
62912;DHT22;49111;51.028;4.218;2023-03-31T00:31:01;13.30;99.90
62912;DHT22;49111;51.028;4.218;2023-03-31T00:33:27;13.20;99.90
62912;DHT22;49111;51.028;4.218;2023-03-31T00:35:54;13.30;99.90
62912;DHT22;49111;51.028;4.218;2023-03-31T00:38:20;13.20;99.90
62912;DHT22;49111;51.028;4.218;2023-03-31T00:40:46;13.20;99.90
62912;DHT22;49111;51.028;4.218;2023-03-31T00:43:26;13.20;99.90
62912;DHT22;49111;51.028;4.218;2023-03-31T00:45:55;13.10;99.90
62912;DHT22;49111;51.028;4.218;2023-03-31T00:48:21;13.10;99.90
62912;DHT22;49111;51.028;4.218;2023-03-31T00:50:54;13.10;99.90
62912;DHT22;49111;51.028;4.218;2023-03-31T00:53:24;13.20;99.90
62912;DHT22;49111;51.028;4.218;2023-03-31T00:55:54;13.10;99.90
62912;DHT22;49111;51.028;4.218;2023-03-31T00:58:22;13.00;99.90
62912;DHT22;49111;51.028;4.218;2023-03-31T01:00:55;13.00;99.90
62912;DHT22;49111;51.028;4.218;2023-03-31T01:03:22;13.00;99.90
62912;DHT22;49111;51.028;4.218;2023-03-31T01:05:55;12.90;99.90
62912;DHT22;49111;51.028;4.218;2023-03-31T01:08:25;12.90;99.90
62912;DHT22;49111;51.028;4.218;2023-03-31T01:11:02;12.90;99.90
62912;DHT22;49111;51.028;4.218;2023-03-31T01:13:29;12.70;99.90
62912;DHT22;49111;51.028;4.218;2023-03-31T01:15:56;12.70;99.90
62912;DHT22;49111;51.028;4.218;2023-03-31T01:18:24;12.60;99.90
62912;DHT22;49111;51.028;4.218;2023-03-31T01:35:09;12.70;99.90
62912;DHT22;49111;51.028;4.218;2023-03-31T01:46:37;12.70;99.90
62912;DHT22;49111;51.028;4.218;2023-03-31T01:49:33;12.80;99.90
62912;DHT22;49111;51.028;4.218;2023-03-31T01:52:19;12.80;99.90
62912;DHT22;49111;51.028;4.218;2023-03-31T01:54:58;12.80;99.90
62912;DHT22;49111;51.028;4.218;2023-03-31T01:57:35;12.80;99.90
62912;DHT22;49111;51.028;4.218;2023-03-31T02:02:50;12.70;99.90
62912;DHT22;49111;51.028;4.218;2023-03-31T02:05:24;12.80;99.90
62912;DHT22;49111;51.028;4.218;2023-03-31T02:07:54;12.80;99.90
62912;DHT22;49111;51.028;4.218;2023-03-31T02:10:24;12.80;99.90
62912;DHT22;49111;51.028;4.218;2023-03-31T02:12:52;12.80;99.90
62912;DHT22;49111;51.028;4.218;2023-03-31T02:15:40;12.80;99.90
62912;DHT22;49111;51.028;4.218;2023-03-31T02:18:10;12.80;99.90
62912;DHT22;49111;51.028;4.218;2023-03-31T02:20:41;12.80;99.90
62912;DHT22;49111;51.028;4.218;2023-03-31T02:23:11;12.70;99.90
62912;DHT22;49111;51.028;4.218;2023-03-31T02:25:44;12.60;99.90
62912;DHT22;49111;51.028;4.218;2023-03-31T02:28:18;12.70;99.90
62912;DHT22;49111;51.028;4.218;2023-03-31T02:31:25;12.60;99.90
62912;DHT22;49111;51.028;4.218;2023-03-31T02:33:52;12.50;99.90
62912;DHT22;49111;51.028;4.218;2023-03-31T02:36:18;12.50;99.90
62912;DHT22;49111;51.028;4.218;2023-03-31T02:38:54;12.60;99.90
62912;DHT22;49111;51.028;4.218;2023-03-31T02:41:22;12.40;99.90
62912;DHT22;49111;51.028;4.218;2023-03-31T02:43:48;12.30;99.90
62912;DHT22;49111;51.028;4.218;2023-03-31T02:46:14;12.30;99.90
62912;DHT22;49111;51.028;4.218;2023-03-31T02:48:46;12.20;99.90
62912;DHT22;49111;51.028;4.218;2023-03-31T03:10:11;12.00;99.90
62912;DHT22;49111;51.028;4.218;2023-03-31T03:15:23;12.00;99.90
62912;DHT22;49111;51.028;4.218;2023-03-31T03:17:50;12.10;99.90
62912;DHT22;49111;51.028;4.218;2023-03-31T03:20:18;12.20;99.90
62912;DHT22;49111;51.028;4.218;2023-03-31T03:22:44;12.20;99.90
62912;DHT22;49111;51.028;4.218;2023-03-31T03:25:12;12.20;99.90
62912;DHT22;49111;51.028;4.218;2023-03-31T03:27:39;12.20;99.90
62912;DHT22;49111;51.028;4.218;2023-03-31T03:30:07;12.20;99.90
62912;DHT22;49111;51.028;4.218;2023-03-31T03:32:34;12.10;99.90
62912;DHT22;49111;51.028;4.218;2023-03-31T03:35:00;12.00;99.90
62912;DHT22;49111;51.028;4.218;2023-03-31T03:37:27;12.00;99.90
62912;DHT22;49111;51.028;4.218;2023-03-31T03:39:53;12.00;99.90
62912;DHT22;49111;51.028;4.218;2023-03-31T03:42:19;11.90;99.90
62912;DHT22;49111;51.028;4.218;2023-03-31T03:44:44;11.90;99.90
62912;DHT22;49111;51.028;4.218;2023-03-31T03:47:10;11.90;99.90
62912;DHT22;49111;51.028;4.218;2023-03-31T03:49:36;11.90;99.90
62912;DHT22;49111;51.028;4.218;2023-03-31T03:52:02;12.00;99.90
62912;DHT22;49111;51.028;4.218;2023-03-31T03:54:28;11.80;99.90
62912;DHT22;49111;51.028;4.218;2023-03-31T03:56:53;11.80;99.90
62912;DHT22;49111;51.028;4.218;2023-03-31T03:59:19;11.80;99.90
62912;DHT22;49111;51.028;4.218;2023-03-31T04:01:45;11.90;99.90
62912;DHT22;49111;51.028;4.218;2023-03-31T04:04:11;12.00;99.90
62912;DHT22;49111;51.028;4.218;2023-03-31T04:06:37;12.00;99.90
62912;DHT22;49111;51.028;4.218;2023-03-31T04:09:03;11.90;99.90
62912;DHT22;49111;51.028;4.218;2023-03-31T04:11:29;11.90;99.90
62912;DHT22;49111;51.028;4.218;2023-03-31T04:13:55;11.80;99.90
62912;DHT22;49111;51.028;4.218;2023-03-31T04:16:21;11.80;99.90
62912;DHT22;49111;51.028;4.218;2023-03-31T04:18:53;11.70;99.90
62912;DHT22;49111;51.028;4.218;2023-03-31T04:21:24;11.70;99.90
62912;DHT22;49111;51.028;4.218;2023-03-31T04:23:53;11.80;99.90
62912;DHT22;49111;51.028;4.218;2023-03-31T04:26:31;11.80;99.90
62912;DHT22;49111;51.028;4.218;2023-03-31T04:29:08;11.80;99.90
62912;DHT22;49111;51.028;4.218;2023-03-31T04:31:34;11.90;99.90
62912;DHT22;49111;51.028;4.218;2023-03-31T04:34:04;11.90;99.90
62912;DHT22;49111;51.028;4.218;2023-03-31T04:36:32;12.00;99.90
62912;DHT22;49111;51.028;4.218;2023-03-31T04:38:58;12.00;99.90
62912;DHT22;49111;51.028;4.218;2023-03-31T04:41:26;11.90;99.90
62912;DHT22;49111;51.028;4.218;2023-03-31T04:43:52;11.90;99.90
62912;DHT22;49111;51.028;4.218;2023-03-31T04:46:18;11.70;99.90
62912;DHT22;49111;51.028;4.218;2023-03-31T04:48:44;11.60;99.90
62912;DHT22;49111;51.028;4.218;2023-03-31T04:51:10;11.60;99.90
62912;DHT22;49111;51.028;4.218;2023-03-31T04:53:36;11.70;99.90
62912;DHT22;49111;51.028;4.218;2023-03-31T04:56:02;11.70;99.90
62912;DHT22;49111;51.028;4.218;2023-03-31T04:58:28;11.80;99.90
62912;DHT22;49111;51.028;4.218;2023-03-31T05:00:54;11.80;99.90
62912;DHT22;49111;51.028;4.218;2023-03-31T05:03:20;11.70;99.90
62912;DHT22;49111;51.028;4.218;2023-03-31T05:05:45;11.60;99.90
62912;DHT22;49111;51.028;4.218;2023-03-31T05:08:11;11.60;99.90
62912;DHT22;49111;51.028;4.218;2023-03-31T05:10:37;11.60;99.90
62912;DHT22;49111;51.028;4.218;2023-03-31T05:13:03;11.70;99.90
62912;DHT22;49111;51.028;4.218;2023-03-31T05:15:28;11.60;99.90
62912;DHT22;49111;51.028;4.218;2023-03-31T05:17:56;11.70;99.90
62912;DHT22;49111;51.028;4.218;2023-03-31T05:20:23;11.70;99.90
62912;DHT22;49111;51.028;4.218;2023-03-31T05:22:48;11.70;99.90
62912;DHT22;49111;51.028;4.218;2023-03-31T05:25:15;11.80;99.90
62912;DHT22;49111;51.028;4.218;2023-03-31T05:27:44;11.90;99.90
62912;DHT22;49111;51.028;4.218;2023-03-31T05:30:12;12.00;99.90
62912;DHT22;49111;51.028;4.218;2023-03-31T05:32:38;11.90;99.90
62912;DHT22;49111;51.028;4.218;2023-03-31T05:35:04;11.90;99.90
62912;DHT22;49111;51.028;4.218;2023-03-31T05:37:30;12.00;99.90
62912;DHT22;49111;51.028;4.218;2023-03-31T05:39:56;12.00;99.90
62912;DHT22;49111;51.028;4.218;2023-03-31T05:42:23;12.00;99.90
62912;DHT22;49111;51.028;4.218;2023-03-31T05:44:49;12.10;99.90
62912;DHT22;49111;51.028;4.218;2023-03-31T05:47:15;12.10;99.90
62912;DHT22;49111;51.028;4.218;2023-03-31T05:49:41;12.10;99.90
62912;DHT22;49111;51.028;4.218;2023-03-31T05:52:09;12.20;99.90
62912;DHT22;49111;51.028;4.218;2023-03-31T05:54:35;12.20;99.90
62912;DHT22;49111;51.028;4.218;2023-03-31T05:57:01;12.20;99.90
62912;DHT22;49111;51.028;4.218;2023-03-31T05:59:27;12.20;99.90
62912;DHT22;49111;51.028;4.218;2023-03-31T06:01:53;12.20;99.90
62912;DHT22;49111;51.028;4.218;2023-03-31T06:04:20;12.30;99.90
62912;DHT22;49111;51.028;4.218;2023-03-31T06:06:46;12.30;99.90
62912;DHT22;49111;51.028;4.218;2023-03-31T06:09:15;12.40;99.90
62912;DHT22;49111;51.028;4.218;2023-03-31T06:11:42;12.40;99.90
62912;DHT22;49111;51.028;4.218;2023-03-31T06:14:08;12.50;99.90
62912;DHT22;49111;51.028;4.218;2023-03-31T06:16:33;12.50;99.90
62912;DHT22;49111;51.028;4.218;2023-03-31T06:18:59;12.50;99.90
62912;DHT22;49111;51.028;4.218;2023-03-31T06:21:25;12.50;99.90
62912;DHT22;49111;51.028;4.218;2023-03-31T06:23:51;12.40;99.90
62912;DHT22;49111;51.028;4.218;2023-03-31T06:26:20;12.40;99.90
62912;DHT22;49111;51.028;4.218;2023-03-31T06:28:47;12.50;99.90
62912;DHT22;49111;51.028;4.218;2023-03-31T06:31:18;12.40;99.90
62912;DHT22;49111;51.028;4.218;2023-03-31T06:33:46;12.40;99.90
62912;DHT22;49111;51.028;4.218;2023-03-31T06:36:13;12.50;99.90
62912;DHT22;49111;51.028;4.218;2023-03-31T06:38:40;12.50;99.90
62912;DHT22;49111;51.028;4.218;2023-03-31T06:41:07;12.60;99.90
62912;DHT22;49111;51.028;4.218;2023-03-31T06:43:34;12.50;99.90
62912;DHT22;49111;51.028;4.218;2023-03-31T06:46:00;12.60;99.90
62912;DHT22;49111;51.028;4.218;2023-03-31T06:48:26;12.60;99.90
62912;DHT22;49111;51.028;4.218;2023-03-31T06:50:53;12.80;99.90
62912;DHT22;49111;51.028;4.218;2023-03-31T06:53:20;12.70;99.90
62912;DHT22;49111;51.028;4.218;2023-03-31T06:55:49;12.70;99.90
62912;DHT22;49111;51.028;4.218;2023-03-31T06:58:15;12.70;99.90
62912;DHT22;49111;51.028;4.218;2023-03-31T07:00:41;12.70;99.90
62912;DHT22;49111;51.028;4.218;2023-03-31T07:03:07;12.70;99.90
62912;DHT22;49111;51.028;4.218;2023-03-31T07:05:35;12.70;99.90
62912;DHT22;49111;51.028;4.218;2023-03-31T07:08:03;12.80;99.90
62912;DHT22;49111;51.028;4.218;2023-03-31T07:10:31;12.70;99.90
62912;DHT22;49111;51.028;4.218;2023-03-31T07:12:58;12.80;99.90
62912;DHT22;49111;51.028;4.218;2023-03-31T07:15:26;12.80;99.90
62912;DHT22;49111;51.028;4.218;2023-03-31T07:17:56;12.80;99.90
62912;DHT22;49111;51.028;4.218;2023-03-31T07:20:27;12.80;99.90
62912;DHT22;49111;51.028;4.218;2023-03-31T07:22:53;12.70;99.90
62912;DHT22;49111;51.028;4.218;2023-03-31T07:25:18;12.80;99.90
62912;DHT22;49111;51.028;4.218;2023-03-31T07:27:45;12.80;99.90
62912;DHT22;49111;51.028;4.218;2023-03-31T07:30:17;12.90;99.90
62912;DHT22;49111;51.028;4.218;2023-03-31T07:32:45;12.90;99.90
62912;DHT22;49111;51.028;4.218;2023-03-31T07:35:11;12.90;99.90
62912;DHT22;49111;51.028;4.218;2023-03-31T07:37:42;12.90;99.90
62912;DHT22;49111;51.028;4.218;2023-03-31T07:40:11;12.90;99.90
62912;DHT22;49111;51.028;4.218;2023-03-31T07:42:37;12.90;99.90
62912;DHT22;49111;51.028;4.218;2023-03-31T07:45:03;13.00;99.90
62912;DHT22;49111;51.028;4.218;2023-03-31T07:47:31;13.10;99.90
62912;DHT22;49111;51.028;4.218;2023-03-31T07:49:57;13.10;99.90
62912;DHT22;49111;51.028;4.218;2023-03-31T07:52:23;13.00;99.90
62912;DHT22;49111;51.028;4.218;2023-03-31T07:54:49;13.00;99.90
62912;DHT22;49111;51.028;4.218;2023-03-31T07:57:15;13.10;99.90
62912;DHT22;49111;51.028;4.218;2023-03-31T07:59:46;13.10;99.90
62912;DHT22;49111;51.028;4.218;2023-03-31T08:02:14;13.10;99.90
62912;DHT22;49111;51.028;4.218;2023-03-31T08:04:41;13.10;99.90
62912;DHT22;49111;51.028;4.218;2023-03-31T08:07:08;13.10;99.90
62912;DHT22;49111;51.028;4.218;2023-03-31T08:09:38;13.00;99.90
62912;DHT22;49111;51.028;4.218;2023-03-31T08:12:04;13.10;99.90
62912;DHT22;49111;51.028;4.218;2023-03-31T08:14:31;13.00;99.90
62912;DHT22;49111;51.028;4.218;2023-03-31T08:16:56;13.10;99.90
62912;DHT22;49111;51.028;4.218;2023-03-31T08:19:25;13.00;99.90
62912;DHT22;49111;51.028;4.218;2023-03-31T08:21:51;13.10;99.90
62912;DHT22;49111;51.028;4.218;2023-03-31T08:24:17;13.00;99.90
62912;DHT22;49111;51.028;4.218;2023-03-31T08:26:43;13.10;99.90
62912;DHT22;49111;51.028;4.218;2023-03-31T08:29:09;13.00;99.90
62912;DHT22;49111;51.028;4.218;2023-03-31T08:31:35;13.00;99.90
62912;DHT22;49111;51.028;4.218;2023-03-31T08:34:01;13.00;99.90
62912;DHT22;49111;51.028;4.218;2023-03-31T08:36:27;13.10;99.90
62912;DHT22;49111;51.028;4.218;2023-03-31T08:38:53;13.10;99.90
62912;DHT22;49111;51.028;4.218;2023-03-31T08:46:54;13.30;99.90
62912;DHT22;49111;51.028;4.218;2023-03-31T08:49:22;13.30;99.90
62912;DHT22;49111;51.028;4.218;2023-03-31T08:51:58;13.30;99.90
62912;DHT22;49111;51.028;4.218;2023-03-31T08:54:36;13.30;99.90
62912;DHT22;49111;51.028;4.218;2023-03-31T08:57:05;13.40;99.90
62912;DHT22;49111;51.028;4.218;2023-03-31T08:59:35;13.50;99.90
62912;DHT22;49111;51.028;4.218;2023-03-31T09:07:36;13.60;99.90
62912;DHT22;49111;51.028;4.218;2023-03-31T09:10:33;13.60;99.90
62912;DHT22;49111;51.028;4.218;2023-03-31T09:16:14;13.70;99.90
62912;DHT22;49111;51.028;4.218;2023-03-31T09:18:42;13.70;99.90
62912;DHT22;49111;51.028;4.218;2023-03-31T09:21:39;13.70;99.90
62912;DHT22;49111;51.028;4.218;2023-03-31T09:24:30;13.80;99.90
62912;DHT22;49111;51.028;4.218;2023-03-31T09:27:03;13.80;99.90
62912;DHT22;49111;51.028;4.218;2023-03-31T09:29:41;13.80;99.90
62912;DHT22;49111;51.028;4.218;2023-03-31T09:34:45;13.70;99.90
62912;DHT22;49111;51.028;4.218;2023-03-31T09:37:12;13.60;99.90
62912;DHT22;49111;51.028;4.218;2023-03-31T09:39:39;13.60;99.90
62912;DHT22;49111;51.028;4.218;2023-03-31T09:42:05;13.60;99.90
62912;DHT22;49111;51.028;4.218;2023-03-31T09:47:38;13.60;99.90
62912;DHT22;49111;51.028;4.218;2023-03-31T09:49:56;13.60;99.90
62912;DHT22;49111;51.028;4.218;2023-03-31T09:52:33;13.60;99.90
62912;DHT22;49111;51.028;4.218;2023-03-31T09:55:03;13.40;99.90
62912;DHT22;49111;51.028;4.218;2023-03-31T09:57:38;13.50;99.90
62912;DHT22;49111;51.028;4.218;2023-03-31T10:02:47;13.60;99.90
62912;DHT22;49111;51.028;4.218;2023-03-31T10:05:55;13.50;99.90
62912;DHT22;49111;51.028;4.218;2023-03-31T10:11:17;13.50;99.90
62912;DHT22;49111;51.028;4.218;2023-03-31T10:13:47;13.50;99.90
62912;DHT22;49111;51.028;4.218;2023-03-31T10:18:46;13.50;99.90
62912;DHT22;49111;51.028;4.218;2023-03-31T10:21:35;13.70;99.90
62912;DHT22;49111;51.028;4.218;2023-03-31T10:24:07;13.80;99.90
62912;DHT22;49111;51.028;4.218;2023-03-31T10:26:34;13.90;99.90
62912;DHT22;49111;51.028;4.218;2023-03-31T10:29:00;13.90;99.90
62912;DHT22;49111;51.028;4.218;2023-03-31T10:31:33;14.00;99.90
62912;DHT22;49111;51.028;4.218;2023-03-31T10:34:07;14.00;99.90
62912;DHT22;49111;51.028;4.218;2023-03-31T10:36:33;14.10;99.90
62912;DHT22;49111;51.028;4.218;2023-03-31T10:39:04;14.10;99.90
62912;DHT22;49111;51.028;4.218;2023-03-31T10:41:31;14.20;99.90
62912;DHT22;49111;51.028;4.218;2023-03-31T10:43:59;14.30;99.90
62912;DHT22;49111;51.028;4.218;2023-03-31T10:46:49;14.20;99.90
62912;DHT22;49111;51.028;4.218;2023-03-31T10:49:26;14.20;99.90
62912;DHT22;49111;51.028;4.218;2023-03-31T10:51:57;14.20;99.90
62912;DHT22;49111;51.028;4.218;2023-03-31T10:54:24;14.20;99.90
62912;DHT22;49111;51.028;4.218;2023-03-31T10:56:56;14.30;99.90
62912;DHT22;49111;51.028;4.218;2023-03-31T11:13:25;14.30;99.90
62912;DHT22;49111;51.028;4.218;2023-03-31T11:26:27;14.20;99.90
62912;DHT22;49111;51.028;4.218;2023-03-31T11:32:19;14.20;99.90
62912;DHT22;49111;51.028;4.218;2023-03-31T11:35:12;14.30;99.90
62912;DHT22;49111;51.028;4.218;2023-03-31T11:42:57;14.20;99.90
62912;DHT22;49111;51.028;4.218;2023-03-31T11:45:32;14.20;99.90
62912;DHT22;49111;51.028;4.218;2023-03-31T11:48:05;14.30;99.90
62912;DHT22;49111;51.028;4.218;2023-03-31T11:50:35;14.50;99.90
62912;DHT22;49111;51.028;4.218;2023-03-31T11:53:25;14.50;99.90
62912;DHT22;49111;51.028;4.218;2023-03-31T11:55:53;14.40;99.90
62912;DHT22;49111;51.028;4.218;2023-03-31T11:58:33;14.30;99.90
62912;DHT22;49111;51.028;4.218;2023-03-31T12:01:24;14.30;99.90
62912;DHT22;49111;51.028;4.218;2023-03-31T12:04:08;14.10;99.90
62912;DHT22;49111;51.028;4.218;2023-03-31T12:06:39;13.70;99.90
62912;DHT22;49111;51.028;4.218;2023-03-31T12:09:32;13.70;99.90
62912;DHT22;49111;51.028;4.218;2023-03-31T12:12:28;13.60;99.90
62912;DHT22;49111;51.028;4.218;2023-03-31T12:17:37;13.30;99.90
62912;DHT22;49111;51.028;4.218;2023-03-31T12:20:14;13.30;99.90
62912;DHT22;49111;51.028;4.218;2023-03-31T12:22:44;13.20;99.90
62912;DHT22;49111;51.028;4.218;2023-03-31T12:25:13;13.00;99.90
62912;DHT22;49111;51.028;4.218;2023-03-31T12:27:41;12.90;99.90
62912;DHT22;49111;51.028;4.218;2023-03-31T12:32:44;12.90;99.90
62912;DHT22;49111;51.028;4.218;2023-03-31T12:35:21;13.00;99.90
62912;DHT22;49111;51.028;4.218;2023-03-31T12:45:49;13.10;99.90
62912;DHT22;49111;51.028;4.218;2023-03-31T12:51:30;13.10;99.90
62912;DHT22;49111;51.028;4.218;2023-03-31T12:59:42;13.10;99.90
62912;DHT22;49111;51.028;4.218;2023-03-31T13:04:34;13.10;99.90
62912;DHT22;49111;51.028;4.218;2023-03-31T13:07:02;13.00;99.90
62912;DHT22;49111;51.028;4.218;2023-03-31T13:09:42;12.90;99.90
62912;DHT22;49111;51.028;4.218;2023-03-31T13:12:14;12.90;99.90
62912;DHT22;49111;51.028;4.218;2023-03-31T13:14:43;13.00;99.90
62912;DHT22;49111;51.028;4.218;2023-03-31T13:19:53;13.10;99.90
62912;DHT22;49111;51.028;4.218;2023-03-31T13:22:36;13.20;99.90
62912;DHT22;49111;51.028;4.218;2023-03-31T13:27:57;13.30;99.90
62912;DHT22;49111;51.028;4.218;2023-03-31T13:33:11;13.30;99.90
62912;DHT22;49111;51.028;4.218;2023-03-31T13:35:42;13.40;99.90
62912;DHT22;49111;51.028;4.218;2023-03-31T13:44:10;13.60;99.90
62912;DHT22;49111;51.028;4.218;2023-03-31T13:49:52;13.40;99.90
62912;DHT22;49111;51.028;4.218;2023-03-31T14:05:29;13.30;99.90
62912;DHT22;49111;51.028;4.218;2023-03-31T14:10:38;13.30;99.90
62912;DHT22;49111;51.028;4.218;2023-03-31T14:18:15;13.30;99.90
62912;DHT22;49111;51.028;4.218;2023-03-31T14:20:47;13.20;99.90
62912;DHT22;49111;51.028;4.218;2023-03-31T14:37:35;13.30;99.90
62912;DHT22;49111;51.028;4.218;2023-03-31T14:40:01;13.40;99.90
62912;DHT22;49111;51.028;4.218;2023-03-31T14:42:40;13.40;99.90
62912;DHT22;49111;51.028;4.218;2023-03-31T14:45:16;13.20;99.90
62912;DHT22;49111;51.028;4.218;2023-03-31T14:47:56;13.20;99.90
62912;DHT22;49111;51.028;4.218;2023-03-31T14:50:33;13.10;99.90
62912;DHT22;49111;51.028;4.218;2023-03-31T14:52:59;13.20;99.90
62912;DHT22;49111;51.028;4.218;2023-03-31T14:55:28;13.20;99.90
62912;DHT22;49111;51.028;4.218;2023-03-31T14:57:58;13.20;99.90
62912;DHT22;49111;51.028;4.218;2023-03-31T15:00:32;13.20;99.90
62912;DHT22;49111;51.028;4.218;2023-03-31T15:02:59;13.10;99.90
62912;DHT22;49111;51.028;4.218;2023-03-31T15:05:37;13.00;99.90
62912;DHT22;49111;51.028;4.218;2023-03-31T15:08:13;13.00;99.90
62912;DHT22;49111;51.028;4.218;2023-03-31T15:10:42;12.80;99.90
62912;DHT22;49111;51.028;4.218;2023-03-31T15:13:14;12.80;99.90
62912;DHT22;49111;51.028;4.218;2023-03-31T15:15:41;12.80;99.90
62912;DHT22;49111;51.028;4.218;2023-03-31T15:18:15;12.60;99.90
62912;DHT22;49111;51.028;4.218;2023-03-31T15:20:42;12.50;99.90
62912;DHT22;49111;51.028;4.218;2023-03-31T15:23:26;12.40;99.90
62912;DHT22;49111;51.028;4.218;2023-03-31T15:26:12;12.30;99.90
62912;DHT22;49111;51.028;4.218;2023-03-31T15:28:53;12.30;99.90
62912;DHT22;49111;51.028;4.218;2023-03-31T15:31:20;12.20;99.90
62912;DHT22;49111;51.028;4.218;2023-03-31T15:33:46;12.20;99.90
62912;DHT22;49111;51.028;4.218;2023-03-31T15:36:13;12.20;99.90
62912;DHT22;49111;51.028;4.218;2023-03-31T15:38:39;12.30;99.90
62912;DHT22;49111;51.028;4.218;2023-03-31T15:41:15;12.40;99.90
62912;DHT22;49111;51.028;4.218;2023-03-31T15:43:46;12.40;99.90
62912;DHT22;49111;51.028;4.218;2023-03-31T15:47:05;12.40;99.90
62912;DHT22;49111;51.028;4.218;2023-03-31T15:49:05;12.40;99.90
62912;DHT22;49111;51.028;4.218;2023-03-31T15:51:46;12.30;99.90
62912;DHT22;49111;51.028;4.218;2023-03-31T15:54:41;12.40;99.90
62912;DHT22;49111;51.028;4.218;2023-03-31T15:57:08;12.40;99.90
62912;DHT22;49111;51.028;4.218;2023-03-31T16:02:12;12.40;99.90
62912;DHT22;49111;51.028;4.218;2023-03-31T16:04:39;12.40;99.90
62912;DHT22;49111;51.028;4.218;2023-03-31T16:07:08;12.40;99.90
62912;DHT22;49111;51.028;4.218;2023-03-31T16:12:41;12.50;99.90
62912;DHT22;49111;51.028;4.218;2023-03-31T16:15:11;12.50;99.90
62912;DHT22;49111;51.028;4.218;2023-03-31T16:17:46;12.50;99.90
62912;DHT22;49111;51.028;4.218;2023-03-31T16:20:28;12.60;99.90
62912;DHT22;49111;51.028;4.218;2023-03-31T16:22:57;12.50;99.90
62912;DHT22;49111;51.028;4.218;2023-03-31T16:25:25;12.50;99.90
62912;DHT22;49111;51.028;4.218;2023-03-31T16:27:54;12.50;99.90
62912;DHT22;49111;51.028;4.218;2023-03-31T16:30:43;12.50;99.90
62912;DHT22;49111;51.028;4.218;2023-03-31T16:33:19;12.50;99.90
62912;DHT22;49111;51.028;4.218;2023-03-31T16:35:47;12.50;99.90
62912;DHT22;49111;51.028;4.218;2023-03-31T16:38:16;12.60;99.90
62912;DHT22;49111;51.028;4.218;2023-03-31T16:40:45;12.50;99.90
62912;DHT22;49111;51.028;4.218;2023-03-31T16:43:17;12.50;99.90
62912;DHT22;49111;51.028;4.218;2023-03-31T16:45:47;12.50;99.90
62912;DHT22;49111;51.028;4.218;2023-03-31T16:48:14;12.50;99.90
62912;DHT22;49111;51.028;4.218;2023-03-31T16:50:47;12.40;99.90
62912;DHT22;49111;51.028;4.218;2023-03-31T16:53:37;12.40;99.90
62912;DHT22;49111;51.028;4.218;2023-03-31T16:56:03;12.40;99.90
62912;DHT22;49111;51.028;4.218;2023-03-31T16:58:29;12.40;99.90
62912;DHT22;49111;51.028;4.218;2023-03-31T17:00:56;12.30;99.90
62912;DHT22;49111;51.028;4.218;2023-03-31T17:03:23;12.50;99.90
62912;DHT22;49111;51.028;4.218;2023-03-31T17:05:50;12.50;99.90
62912;DHT22;49111;51.028;4.218;2023-03-31T17:08:18;12.50;99.90
62912;DHT22;49111;51.028;4.218;2023-03-31T17:10:52;12.50;99.90
62912;DHT22;49111;51.028;4.218;2023-03-31T17:13:17;12.50;99.90
62912;DHT22;49111;51.028;4.218;2023-03-31T17:15:43;12.40;99.90
62912;DHT22;49111;51.028;4.218;2023-03-31T17:18:09;12.30;99.90
62912;DHT22;49111;51.028;4.218;2023-03-31T17:20:35;12.30;99.90
62912;DHT22;49111;51.028;4.218;2023-03-31T17:23:01;12.30;99.90
62912;DHT22;49111;51.028;4.218;2023-03-31T17:25:27;12.20;99.90
62912;DHT22;49111;51.028;4.218;2023-03-31T17:27:53;12.00;99.90
62912;DHT22;49111;51.028;4.218;2023-03-31T17:30:20;11.90;99.90
62912;DHT22;49111;51.028;4.218;2023-03-31T17:32:46;11.90;99.90
62912;DHT22;49111;51.028;4.218;2023-03-31T17:35:13;11.80;99.90
62912;DHT22;49111;51.028;4.218;2023-03-31T17:37:48;11.80;99.90
62912;DHT22;49111;51.028;4.218;2023-03-31T17:40:19;11.80;99.90
62912;DHT22;49111;51.028;4.218;2023-03-31T17:42:45;11.80;99.90
62912;DHT22;49111;51.028;4.218;2023-03-31T17:45:14;11.80;99.90
62912;DHT22;49111;51.028;4.218;2023-03-31T17:47:40;11.80;99.90
62912;DHT22;49111;51.028;4.218;2023-03-31T17:50:07;11.80;99.90
62912;DHT22;49111;51.028;4.218;2023-03-31T17:52:34;11.70;99.90
62912;DHT22;49111;51.028;4.218;2023-03-31T17:55:01;11.80;99.90
62912;DHT22;49111;51.028;4.218;2023-03-31T17:57:27;11.80;99.90
62912;DHT22;49111;51.028;4.218;2023-03-31T17:59:53;11.70;99.90
62912;DHT22;49111;51.028;4.218;2023-03-31T18:02:18;11.60;99.90
62912;DHT22;49111;51.028;4.218;2023-03-31T18:04:45;11.70;99.90
62912;DHT22;49111;51.028;4.218;2023-03-31T18:07:11;11.70;99.90
62912;DHT22;49111;51.028;4.218;2023-03-31T18:09:37;11.70;99.90
62912;DHT22;49111;51.028;4.218;2023-03-31T18:12:04;11.60;99.90
62912;DHT22;49111;51.028;4.218;2023-03-31T18:14:30;11.60;99.90
62912;DHT22;49111;51.028;4.218;2023-03-31T18:16:55;11.60;99.90
62912;DHT22;49111;51.028;4.218;2023-03-31T18:19:23;11.60;99.90
62912;DHT22;49111;51.028;4.218;2023-03-31T18:21:49;11.70;99.90
62912;DHT22;49111;51.028;4.218;2023-03-31T18:24:16;11.80;99.90
62912;DHT22;49111;51.028;4.218;2023-03-31T18:26:43;11.70;99.90
62912;DHT22;49111;51.028;4.218;2023-03-31T18:29:08;11.70;99.90
62912;DHT22;49111;51.028;4.218;2023-03-31T18:31:34;11.70;99.90
62912;DHT22;49111;51.028;4.218;2023-03-31T18:34:00;11.70;99.90
62912;DHT22;49111;51.028;4.218;2023-03-31T18:36:26;11.70;99.90
62912;DHT22;49111;51.028;4.218;2023-03-31T18:38:54;11.60;99.90
62912;DHT22;49111;51.028;4.218;2023-03-31T18:41:20;11.60;99.90
62912;DHT22;49111;51.028;4.218;2023-03-31T18:43:46;11.70;99.90
62912;DHT22;49111;51.028;4.218;2023-03-31T18:46:18;11.50;99.90
62912;DHT22;49111;51.028;4.218;2023-03-31T18:48:44;11.50;99.90
62912;DHT22;49111;51.028;4.218;2023-03-31T18:51:11;11.50;99.90
62912;DHT22;49111;51.028;4.218;2023-03-31T18:53:37;11.60;99.90
62912;DHT22;49111;51.028;4.218;2023-03-31T18:56:03;11.60;99.90
62912;DHT22;49111;51.028;4.218;2023-03-31T18:58:29;11.50;99.90